Time;durP1;ratioP1;P1;durP2;ratioP2;P2;SDS_P1;SDS_P2;PMS_P1;PMS_P2;Temp;Humidity;BMP_temperature;BMP_pressure;BME280_temperature;BME280_humidity;BME280_pressure;Samples;Min_cycle;Max_cycle;Signal;HPM_P1;HPM_P2
2023/04/03 00:01:26;;;;;;;;;;;;;;;13.56;39.38;94500.09;5069261;28;19951;-65
2023/04/03 00:03:53;;;;;;;;;;;;;;;13.63;39.18;94500.53;5069011;28;19939;-67
2023/04/03 00:06:20;;;;;;;;;;;;;;;13.68;39.08;94494.44;5068534;28;19951;-65
2023/04/03 00:08:46;;;;;;;;;;;;;;;13.76;38.67;94494.56;5069606;28;20035;-67
2023/04/03 00:11:15;;;;;;;;;;;;;;;13.70;38.94;94490.44;5068987;28;20036;-67
2023/04/03 00:13:41;;;;;;;;;;;;;;;13.77;38.62;94482.97;5069467;28;19976;-65
2023/04/03 00:16:09;;;;;;;;;;;;;;;13.66;38.31;94475.50;5068488;28;19978;-67
2023/04/03 00:18:36;;;;;;;;;;;;;;;13.26;39.60;94474.16;5068636;28;19991;-65
2023/04/03 00:21:03;;;;;;;;;;;;;;;12.75;40.48;94473.91;5068512;28;19947;-67
2023/04/03 00:23:30;;;;;;;;;;;;;;;12.69;40.51;94479.50;5068689;28;20404;-65
2023/04/03 00:25:57;;;;;;;;;;;;;;;12.89;40.54;94472.19;5068253;28;20002;-65
2023/04/03 00:28:24;;;;;;;;;;;;;;;13.08;39.87;94480.16;5068555;28;19992;-65
2023/04/03 00:30:51;;;;;;;;;;;;;;;13.07;40.02;94471.50;5068448;28;19945;-66
2023/04/03 00:33:21;;;;;;;;;;;;;;;13.13;39.93;94478.25;5068094;28;19959;-64
2023/04/03 00:35:48;;;;;;;;;;;;;;;13.20;39.43;94468.19;5068699;28;20011;-65
2023/04/03 00:38:15;;;;;;;;;;;;;;;13.30;39.43;94475.19;5068208;28;19952;-66
2023/04/03 00:40:43;;;;;;;;;;;;;;;13.04;39.74;94474.69;5050611;28;19950;-64
2023/04/03 00:43:14;;;;;;;;;;;;;;;13.15;39.53;94478.78;5050183;28;19946;-66
2023/04/03 00:45:42;;;;;;;;;;;;;;;12.95;39.92;94478.19;5050261;28;19943;-64
2023/04/03 00:48:15;;;;;;;;;;;;;;;12.80;40.78;94481.75;5068367;28;19953;-65
2023/04/03 00:50:42;;;;;;;;;;;;;;;12.90;40.74;94480.88;5068355;28;20088;-66
2023/04/03 00:53:12;;;;;;;;;;;;;;;13.00;40.13;94481.53;5037424;28;19948;-66
2023/04/03 00:55:39;;;;;;;;;;;;;;;12.96;40.61;94480.53;5064808;28;20034;-65
2023/04/03 00:58:07;;;;;;;;;;;;;;;13.09;40.38;94479.88;5051060;28;20367;-65
2023/04/03 01:00:35;;;;;;;;;;;;;;;13.15;40.07;94472.72;5069015;28;19940;-67
2023/04/03 01:03:02;;;;;;;;;;;;;;;12.73;40.91;94491.03;5050390;28;20473;-64
2023/04/03 01:05:29;;;;;;;;;;;;;;;11.51;43.62;94490.34;5050911;28;19957;-67
2023/04/03 01:07:57;;;;;;;;;;;;;;;12.11;42.62;94490.00;5034012;28;19998;-65
2023/04/03 01:10:25;;;;;;;;;;;;;;;12.54;41.81;94482.25;5050530;28;19954;-64
2023/04/03 01:12:52;;;;;;;;;;;;;;;12.74;41.67;94493.38;5049821;28;19944;-64
2023/04/03 01:15:22;;;;;;;;;;;;;;;12.81;41.28;94487.81;5067889;28;19953;-65
2023/04/03 01:17:50;;;;;;;;;;;;;;;12.82;41.27;94478.84;5049944;28;19952;-65
2023/04/03 01:20:32;;;;;;;;;;;;;;;12.64;41.27;94490.84;5050191;28;20042;-64
2023/04/03 01:23:07;;;;;;;;;;;;;;;12.56;41.60;94488.81;5049550;28;19956;-65
2023/04/03 01:25:36;;;;;;;;;;;;;;;12.50;41.84;94486.53;5049678;28;19956;-66
2023/04/03 01:28:03;;;;;;;;;;;;;;;12.55;41.58;94487.25;5049389;28;19952;-65
2023/04/03 01:30:33;;;;;;;;;;;;;;;12.55;41.97;94500.41;5067843;28;19983;-65
2023/04/03 01:33:00;;;;;;;;;;;;;;;12.54;41.79;94493.56;5049675;28;19946;-67
2023/04/03 01:35:28;;;;;;;;;;;;;;;12.41;42.13;94494.19;5049713;28;19944;-66
2023/04/03 01:40:40;;;;;;;;;;;;;;;12.52;41.53;94490.41;5068038;28;20381;-68
2023/04/03 01:43:07;;;;;;;;;;;;;;;12.38;41.95;94492.13;5049138;28;19957;-68
2023/04/03 01:45:34;;;;;;;;;;;;;;;12.05;42.73;94496.31;5049978;28;19944;-67
2023/04/03 01:48:01;;;;;;;;;;;;;;;11.98;42.38;94493.22;5049465;28;20125;-66
2023/04/03 01:50:28;;;;;;;;;;;;;;;11.76;42.88;94495.47;5049770;28;20039;-65
2023/04/03 01:52:54;;;;;;;;;;;;;;;11.95;42.58;94500.88;5067210;28;20042;-65
2023/04/03 01:55:21;;;;;;;;;;;;;;;12.07;42.15;94509.19;5050246;28;20341;-66
2023/04/03 01:57:48;;;;;;;;;;;;;;;12.10;42.26;94500.75;5048821;28;20333;-67
2023/04/03 02:00:15;;;;;;;;;;;;;;;12.13;41.92;94508.09;5053129;28;19949;-66
2023/04/03 02:02:42;;;;;;;;;;;;;;;12.24;41.85;94509.59;5053312;28;19950;-66
2023/04/03 02:05:08;;;;;;;;;;;;;;;12.23;41.94;94513.25;5071479;28;20756;-66
2023/04/03 02:07:35;;;;;;;;;;;;;;;12.22;41.57;94511.69;5052919;28;20003;-65
2023/04/03 02:10:02;;;;;;;;;;;;;;;12.25;41.61;94505.88;5071002;28;20448;-66
2023/04/03 02:12:29;;;;;;;;;;;;;;;12.02;41.99;94506.59;5070817;28;20391;-65
2023/04/03 02:14:55;;;;;;;;;;;;;;;12.20;41.61;94500.69;5071221;28;19986;-64
2023/04/03 02:17:22;;;;;;;;;;;;;;;12.02;42.21;94509.22;5070730;28;19949;-66
2023/04/03 02:19:49;;;;;;;;;;;;;;;11.92;42.54;94512.69;5052453;28;19947;-66
2023/04/03 02:22:16;;;;;;;;;;;;;;;11.80;42.33;94508.84;5052110;28;19950;-66
2023/04/03 02:24:43;;;;;;;;;;;;;;;11.83;42.66;94503.81;5053257;28;20040;-65
2023/04/03 02:27:10;;;;;;;;;;;;;;;11.84;42.22;94494.13;5052129;28;19996;-66
2023/04/03 02:29:36;;;;;;;;;;;;;;;11.94;42.26;94489.56;5053163;28;19991;-65
2023/04/03 02:32:05;;;;;;;;;;;;;;;11.82;42.55;94496.22;5052354;28;20672;-66
2023/04/03 02:34:32;;;;;;;;;;;;;;;11.82;42.24;94486.50;5052615;28;19951;-65
2023/04/03 02:37:00;;;;;;;;;;;;;;;11.97;42.22;94488.25;5052129;28;19982;-66
2023/04/03 02:39:28;;;;;;;;;;;;;;;11.48;43.39;94488.25;5052171;28;20006;-67
2023/04/03 02:41:57;;;;;;;;;;;;;;;9.98;47.08;94486.72;5052369;28;19946;-67
2023/04/03 02:44:24;;;;;;;;;;;;;;;10.56;45.41;94495.88;5052574;28;19959;-66
2023/04/03 02:46:52;;;;;;;;;;;;;;;10.65;45.69;94489.84;5052209;28;19954;-68
2023/04/03 02:49:18;;;;;;;;;;;;;;;10.91;45.36;94486.09;5070641;28;20362;-67
2023/04/03 02:51:45;;;;;;;;;;;;;;;11.15;44.74;94481.84;5070047;28;19956;-66
2023/04/03 02:54:12;;;;;;;;;;;;;;;11.21;44.41;94475.53;5052737;28;21135;-65
2023/04/03 02:56:44;;;;;;;;;;;;;;;11.40;43.94;94477.53;5051943;28;20043;-67
2023/04/03 02:59:10;;;;;;;;;;;;;;;11.47;43.56;94467.53;5052394;28;19950;-68
2023/04/03 03:01:39;;;;;;;;;;;;;;;11.44;43.59;94474.09;5051229;28;20047;-66
2023/04/03 03:04:06;;;;;;;;;;;;;;;11.43;43.91;94471.72;5048080;28;19957;-65
2023/04/03 03:06:32;;;;;;;;;;;;;;;11.58;43.14;94474.28;5070127;28;19956;-66
2023/04/03 03:08:59;;;;;;;;;;;;;;;11.37;43.68;94472.84;5070214;28;19954;-65
2023/04/03 03:11:26;;;;;;;;;;;;;;;11.53;43.46;94469.06;5050478;28;19954;-66
2023/04/03 03:13:52;;;;;;;;;;;;;;;11.45;43.57;94464.38;5051926;28;20329;-66
2023/04/03 03:16:19;;;;;;;;;;;;;;;11.38;44.02;94463.91;5052019;28;20049;-66
2023/04/03 03:18:46;;;;;;;;;;;;;;;11.22;44.28;94461.34;5070505;28;20025;-66
2023/04/03 03:21:13;;;;;;;;;;;;;;;11.27;43.88;94462.38;5051435;28;19947;-68
2023/04/03 03:23:41;;;;;;;;;;;;;;;11.20;43.92;94463.44;5068688;28;20733;-65
2023/04/03 03:26:08;;;;;;;;;;;;;;;11.20;44.43;94458.19;5051837;28;19948;-66
2023/04/03 03:28:36;;;;;;;;;;;;;;;11.18;44.07;94460.31;5070194;28;20538;-65
2023/04/03 03:31:05;;;;;;;;;;;;;;;11.21;44.12;94470.28;5051248;28;19951;-65
2023/04/03 03:33:32;;;;;;;;;;;;;;;11.35;43.74;94470.47;5051674;28;19982;-64
2023/04/03 03:35:59;;;;;;;;;;;;;;;11.46;43.40;94466.72;5069323;28;19946;-66
2023/04/03 03:38:26;;;;;;;;;;;;;;;11.42;43.87;94470.19;5069462;28;19958;-67
2023/04/03 03:40:54;;;;;;;;;;;;;;;11.30;44.10;94474.94;5051787;28;19959;-65
2023/04/03 03:43:23;;;;;;;;;;;;;;;11.26;43.41;94476.56;5051535;28;19949;-65
2023/04/03 03:45:52;;;;;;;;;;;;;;;11.41;43.82;94476.47;5051217;28;20394;-66
2023/04/03 03:48:19;;;;;;;;;;;;;;;11.50;43.76;94459.91;5051035;28;20016;-65
2023/04/03 03:50:46;;;;;;;;;;;;;;;11.54;43.46;94457.50;5068999;28;19946;-65
2023/04/03 03:53:13;;;;;;;;;;;;;;;11.61;43.26;94463.25;5068942;28;20374;-65
2023/04/03 03:55:40;;;;;;;;;;;;;;;11.36;43.68;94468.63;5037783;28;19955;-64
2023/04/03 03:58:07;;;;;;;;;;;;;;;11.32;43.95;94468.38;5050968;28;20571;-65
2023/04/03 04:00:35;;;;;;;;;;;;;;;11.37;43.71;94470.22;5049210;28;20033;-65
2023/04/03 04:03:02;;;;;;;;;;;;;;;11.30;43.83;94469.69;5063985;28;19958;-65
2023/04/03 04:05:30;;;;;;;;;;;;;;;11.40;43.62;94472.28;5064079;28;20011;-65
2023/04/03 04:07:59;;;;;;;;;;;;;;;11.26;44.01;94473.94;5047870;28;20010;-64
2023/04/03 04:10:26;;;;;;;;;;;;;;;11.23;43.88;94470.00;5061068;28;19955;-65
2023/04/03 04:12:54;;;;;;;;;;;;;;;11.11;44.21;94462.44;5049276;28;19953;-65
2023/04/03 04:15:26;;;;;;;;;;;;;;;11.31;44.28;94463.41;5051587;28;19953;-65
2023/04/03 04:17:55;;;;;;;;;;;;;;;11.13;44.37;94477.94;5050306;28;19941;-66
2023/04/03 04:20:22;;;;;;;;;;;;;;;10.71;44.97;94486.16;5051431;28;19944;-66
2023/04/03 04:22:49;;;;;;;;;;;;;;;10.98;44.18;94480.59;5055465;28;19947;-66
2023/04/03 04:25:17;;;;;;;;;;;;;;;10.77;44.78;94489.53;5051224;28;19947;-66
2023/04/03 04:27:43;;;;;;;;;;;;;;;10.96;44.09;94491.34;5067896;28;19944;-69
2023/04/03 04:30:13;;;;;;;;;;;;;;;11.08;44.21;94497.06;5051282;28;19940;-66
2023/04/03 04:32:41;;;;;;;;;;;;;;;11.20;43.64;94484.41;5051216;28;19944;-69
2023/04/03 04:35:08;;;;;;;;;;;;;;;11.14;44.42;94475.03;5051336;28;20029;-65
2023/04/03 04:37:39;;;;;;;;;;;;;;;11.32;43.87;94483.34;5050406;28;19950;-67
2023/04/03 04:40:06;;;;;;;;;;;;;;;11.16;44.43;94487.88;5051240;28;19955;-66
2023/04/03 04:42:33;;;;;;;;;;;;;;;11.23;43.99;94504.88;5044852;28;20531;-67
2023/04/03 04:45:00;;;;;;;;;;;;;;;11.42;43.88;94501.66;5047810;28;19944;-67
2023/04/03 04:47:28;;;;;;;;;;;;;;;11.48;43.64;94495.34;5067758;28;19948;-69
2023/04/03 04:49:55;;;;;;;;;;;;;;;11.52;43.94;94502.38;5051000;28;19991;-66
2023/04/03 04:52:22;;;;;;;;;;;;;;;11.56;43.65;94507.88;5050223;28;20471;-66
2023/04/03 04:54:49;;;;;;;;;;;;;;;11.46;43.79;94502.69;5051048;28;19944;-68
2023/04/03 04:57:17;;;;;;;;;;;;;;;11.51;43.80;94510.53;5050289;28;20443;-67
2023/04/03 04:59:44;;;;;;;;;;;;;;;11.63;43.96;94513.63;5050947;28;20408;-68
2023/04/03 05:02:11;;;;;;;;;;;;;;;11.59;44.15;94518.63;5050953;28;20464;-68
2023/04/03 05:04:40;;;;;;;;;;;;;;;11.76;43.55;94520.94;5050920;28;19948;-68
2023/04/03 05:07:13;;;;;;;;;;;;;;;11.72;43.91;94525.13;5068353;28;19949;-66
2023/04/03 05:09:42;;;;;;;;;;;;;;;11.77;44.04;94531.16;5056003;28;19949;-63
2023/04/03 05:12:10;;;;;;;;;;;;;;;11.80;43.63;94540.34;5050606;28;19950;-66
2023/04/03 05:14:43;;;;;;;;;;;;;;;11.69;43.76;94544.06;5051311;28;20429;-65
2023/04/03 05:17:10;;;;;;;;;;;;;;;11.68;43.38;94540.66;5050587;28;19955;-65
2023/04/03 05:19:41;;;;;;;;;;;;;;;11.84;43.40;94530.88;5050753;28;19949;-63
2023/04/03 05:22:08;;;;;;;;;;;;;;;11.95;43.52;94542.88;5050198;28;20039;-62
2023/04/03 05:24:35;;;;;;;;;;;;;;;12.04;43.10;94546.50;5069611;28;20039;-65
2023/04/03 05:27:04;;;;;;;;;;;;;;;12.15;43.01;94537.50;5050611;28;19954;-66
2023/04/03 05:29:34;;;;;;;;;;;;;;;12.01;43.59;94526.81;5050819;28;20368;-67
2023/04/03 05:32:03;;;;;;;;;;;;;;;12.11;42.94;94525.97;5037248;28;20406;-67
2023/04/03 05:34:29;;;;;;;;;;;;;;;12.10;43.09;94527.78;5053475;28;20002;-63
2023/04/03 05:36:56;;;;;;;;;;;;;;;12.04;43.45;94525.50;5054269;28;20472;-64
2023/04/03 05:39:25;;;;;;;;;;;;;;;12.12;43.60;94532.78;5054699;28;20007;-66
2023/04/03 05:41:52;;;;;;;;;;;;;;;12.11;43.89;94525.97;5050934;28;19956;-66
2023/04/03 05:44:19;;;;;;;;;;;;;;;12.34;43.59;94522.63;5051768;28;19972;-66
2023/04/03 05:46:47;;;;;;;;;;;;;;;12.50;43.43;94524.06;5052257;28;19997;-64
2023/04/03 05:49:14;;;;;;;;;;;;;;;12.46;43.81;94525.72;5051808;28;19989;-66
2023/04/03 05:51:41;;;;;;;;;;;;;;;12.46;43.64;94523.06;5069873;28;19941;-62
2023/04/03 05:54:27;;;;;;;;;;;;;;;12.42;44.06;94514.16;5042510;28;20413;-62
2023/04/03 05:57:03;;;;;;;;;;;;;;;12.40;43.90;94518.91;5040389;28;19950;-64
2023/04/03 05:59:30;;;;;;;;;;;;;;;12.61;44.07;94509.78;5072408;28;20468;-65
2023/04/03 06:01:59;;;;;;;;;;;;;;;12.43;44.09;94509.69;5053887;28;19951;-64
2023/04/03 06:04:26;;;;;;;;;;;;;;;12.45;44.23;94510.97;5072117;28;20079;-66
2023/04/03 06:06:54;;;;;;;;;;;;;;;12.64;43.42;94501.38;5053951;28;20466;-64
2023/04/03 06:09:22;;;;;;;;;;;;;;;12.60;43.52;94507.44;5071974;28;19947;-64
2023/04/03 06:11:49;;;;;;;;;;;;;;;12.65;43.74;94495.03;5071661;28;19953;-66
2023/04/03 06:14:16;;;;;;;;;;;;;;;12.59;44.10;94498.00;5054167;28;20041;-63
2023/04/03 06:16:43;;;;;;;;;;;;;;;12.62;43.52;94495.59;5071948;28;19985;-64
2023/04/03 06:19:10;;;;;;;;;;;;;;;12.76;42.97;94493.88;5071568;28;20035;-69
2023/04/03 06:21:42;;;;;;;;;;;;;;;12.84;43.45;94485.41;5053636;28;20337;-64
2023/04/03 06:24:09;;;;;;;;;;;;;;;12.60;43.22;94487.22;5058757;28;19958;-62
2023/04/03 06:26:36;;;;;;;;;;;;;;;12.68;43.72;94491.84;5071438;28;20008;-65
2023/04/03 06:29:03;;;;;;;;;;;;;;;12.83;43.35;94501.44;5072182;28;19952;-64
2023/04/03 06:31:30;;;;;;;;;;;;;;;12.92;43.17;94500.53;5071650;28;19973;-64
2023/04/03 06:33:56;;;;;;;;;;;;;;;12.95;43.47;94509.72;5072031;28;20053;-66
2023/04/03 06:36:24;;;;;;;;;;;;;;;13.04;43.17;94522.03;5071232;28;19949;-66
2023/04/03 06:38:50;;;;;;;;;;;;;;;12.99;43.50;94526.53;5054197;28;20001;-64
2023/04/03 06:41:17;;;;;;;;;;;;;;;13.11;43.27;94525.09;5071473;28;19949;-66
2023/04/03 06:43:44;;;;;;;;;;;;;;;13.20;44.36;94522.63;5072048;28;20042;-66
2023/04/03 06:46:15;;;;;;;;;;;;;;;13.29;43.48;94514.91;5070794;28;20014;-67
2023/04/03 06:48:42;;;;;;;;;;;;;;;13.37;43.51;94519.56;5071660;28;19952;-66
2023/04/03 06:51:23;;;;;;;;;;;;;;;13.19;43.56;94511.31;5070858;28;19971;-64
2023/04/03 06:53:50;;;;;;;;;;;;;;;13.23;44.17;94505.53;5054306;28;19975;-63
2023/04/03 06:56:17;;;;;;;;;;;;;;;12.90;44.35;94517.69;5070760;28;20083;-66
2023/04/03 06:58:44;;;;;;;;;;;;;;;12.88;45.49;94510.03;5071240;28;19993;-65
2023/04/03 07:01:13;;;;;;;;;;;;;;;13.27;43.71;94517.81;5070931;28;19946;-68
2023/04/03 07:03:39;;;;;;;;;;;;;;;13.15;43.90;94518.22;5071279;28;20260;-67
2023/04/03 07:06:09;;;;;;;;;;;;;;;13.20;43.23;94507.66;5071019;28;19945;-65
2023/04/03 07:08:36;;;;;;;;;;;;;;;13.32;43.16;94514.38;5071366;28;19959;-66
2023/04/03 07:11:03;;;;;;;;;;;;;;;13.34;42.86;94506.97;5070731;28;20011;-66
2023/04/03 07:13:30;;;;;;;;;;;;;;;13.58;43.16;94505.06;5071576;28;19998;-67
2023/04/03 07:15:57;;;;;;;;;;;;;;;13.81;43.36;94504.25;5070581;28;19984;-69
2023/04/03 07:18:24;;;;;;;;;;;;;;;13.71;44.18;94496.47;5071045;28;19943;-64
2023/04/03 07:20:51;;;;;;;;;;;;;;;13.81;43.00;94485.81;5071258;28;20031;-66
2023/04/03 07:23:18;;;;;;;;;;;;;;;14.05;43.30;94486.53;5070917;28;19947;-64
2023/04/03 07:25:48;;;;;;;;;;;;;;;13.97;43.33;94484.53;5070729;28;19985;-67
2023/04/03 07:28:16;;;;;;;;;;;;;;;14.20;42.10;94479.16;5070246;28;19946;-66
2023/04/03 07:30:48;;;;;;;;;;;;;;;14.42;41.86;94481.22;5052738;28;19959;-67
2023/04/03 07:33:15;;;;;;;;;;;;;;;14.20;42.57;94499.47;5070340;28;19988;-66
2023/04/03 07:35:42;;;;;;;;;;;;;;;14.29;42.61;94481.94;5071081;28;20009;-66
2023/04/03 07:38:09;;;;;;;;;;;;;;;14.59;42.31;94492.00;5070284;28;20429;-65
2023/04/03 07:40:36;;;;;;;;;;;;;;;14.42;42.21;94493.59;5071171;28;19948;-66
2023/04/03 07:43:04;;;;;;;;;;;;;;;14.60;41.78;94480.38;5070498;28;20044;-68
2023/04/03 07:45:30;;;;;;;;;;;;;;;14.26;42.77;94482.50;5070933;28;19973;-68
2023/04/03 07:47:57;;;;;;;;;;;;;;;14.43;41.93;94482.78;5070001;28;20006;-68
2023/04/03 07:50:24;;;;;;;;;;;;;;;14.43;42.24;94472.25;5070774;28;20316;-69
2023/04/03 07:52:52;;;;;;;;;;;;;;;14.39;42.53;94468.63;5052016;28;19942;-68
2023/04/03 07:55:19;;;;;;;;;;;;;;;14.49;42.17;94472.94;5070294;28;19969;-66
2023/04/03 07:57:46;;;;;;;;;;;;;;;14.52;42.07;94481.06;5069058;28;19970;-66
2023/04/03 08:00:13;;;;;;;;;;;;;;;14.31;41.89;94468.47;5070426;28;19947;-69
2023/04/03 08:02:40;;;;;;;;;;;;;;;14.51;41.72;94473.41;5070184;28;20027;-64
2023/04/03 08:05:08;;;;;;;;;;;;;;;14.60;42.09;94466.41;5052516;28;19988;-67
2023/04/03 08:07:36;;;;;;;;;;;;;;;14.65;41.63;94469.75;5069814;28;19952;-63
2023/04/03 08:10:03;;;;;;;;;;;;;;;14.76;41.82;94455.31;5070632;28;20422;-69
2023/04/03 08:12:31;;;;;;;;;;;;;;;14.70;41.88;94456.50;5070085;28;19947;-68
2023/04/03 08:15:00;;;;;;;;;;;;;;;14.93;41.04;94452.88;5070108;28;20703;-63
2023/04/03 08:17:27;;;;;;;;;;;;;;;14.48;41.64;94448.44;5069612;28;19943;-68
2023/04/03 08:19:54;;;;;;;;;;;;;;;14.74;41.55;94452.19;5070331;28;19948;-67
2023/04/03 08:22:20;;;;;;;;;;;;;;;14.94;40.83;94457.06;5069480;28;19939;-67
2023/04/03 08:24:47;;;;;;;;;;;;;;;14.95;41.77;94453.38;5070186;28;20042;-67
2023/04/03 08:27:25;;;;;;;;;;;;;;;14.84;40.92;94445.94;5058092;28;20040;-66
2023/04/03 08:29:51;;;;;;;;;;;;;;;14.90;40.95;94450.84;5069825;28;19937;-64
2023/04/03 08:32:18;;;;;;;;;;;;;;;15.01;40.56;94446.94;5069512;28;20046;-66
2023/04/03 08:34:46;;;;;;;;;;;;;;;14.88;40.97;94455.63;5070235;28;20037;-67
2023/04/03 08:37:13;;;;;;;;;;;;;;;14.88;40.65;94454.84;5069066;28;19942;-66
2023/04/03 08:39:39;;;;;;;;;;;;;;;15.14;40.36;94435.56;5069861;28;20474;-67
2023/04/03 08:42:15;;;;;;;;;;;;;;;15.25;40.58;94426.38;5069619;28;19936;-64
2023/04/03 08:44:41;;;;;;;;;;;;;;;14.93;40.51;94431.78;5069533;28;20044;-67
2023/04/03 08:47:11;;;;;;;;;;;;;;;14.84;40.51;94436.19;5069861;28;19978;-67
2023/04/03 08:49:40;;;;;;;;;;;;;;;14.98;40.08;94436.19;5069660;28;20332;-67
2023/04/03 08:52:12;;;;;;;;;;;;;;;15.04;40.20;94435.78;5069387;28;19971;-68
2023/04/03 08:54:42;;;;;;;;;;;;;;;15.17;40.07;94424.44;5069639;28;19940;-67
2023/04/03 08:57:11;;;;;;;;;;;;;;;15.52;39.67;94414.25;5068583;28;19990;-67
2023/04/03 08:59:39;;;;;;;;;;;;;;;15.45;39.99;94414.66;5069372;28;19952;-67
2023/04/03 09:02:35;;;;;;;;;;;;;;;15.79;39.52;94414.16;5068764;28;19937;-67
2023/04/03 09:05:11;;;;;;;;;;;;;;;16.02;39.40;94403.31;5052128;28;19951;-68
2023/04/03 09:07:41;;;;;;;;;;;;;;;15.90;39.36;94405.72;5069178;28;19994;-64
2023/04/03 09:10:10;;;;;;;;;;;;;;;16.24;38.82;94405.16;5073184;28;19939;-67
2023/04/03 09:12:48;;;;;;;;;;;;;;;15.96;39.58;94390.53;5073025;28;19986;-68
2023/04/03 09:15:22;;;;;;;;;;;;;;;16.31;38.84;94389.69;5073021;28;20037;-65
2023/04/03 09:18:13;;;;;;;;;;;;;;;16.52;38.70;94385.44;5063449;28;19945;-69
2023/04/03 09:20:50;;;;;;;;;;;;;;;16.53;39.27;94379.06;5073367;28;19980;-68
2023/04/03 09:23:23;;;;;;;;;;;;;;;16.85;38.70;94378.75;5073286;28;20514;-71
2023/04/03 09:25:53;;;;;;;;;;;;;;;16.89;38.34;94377.06;5061227;28;19949;-63
2023/04/03 09:28:19;;;;;;;;;;;;;;;16.68;38.88;94378.66;5073122;28;19945;-68
2023/04/03 09:30:46;;;;;;;;;;;;;;;16.72;39.25;94374.34;5073286;28;20438;-70
2023/04/03 09:33:13;;;;;;;;;;;;;;;16.68;38.36;94370.72;5072632;28;19992;-69
2023/04/03 09:35:40;;;;;;;;;;;;;;;16.52;38.67;94368.78;5073698;28;19955;-67
2023/04/03 09:38:16;;;;;;;;;;;;;;;16.78;38.46;94378.41;5072583;28;19952;-64
2023/04/03 09:40:46;;;;;;;;;;;;;;;16.87;38.56;94371.28;5073346;28;19932;-66
2023/04/03 09:43:15;;;;;;;;;;;;;;;17.09;38.38;94371.19;5071960;28;19949;-66
2023/04/03 09:45:43;;;;;;;;;;;;;;;17.19;38.20;94357.66;5072761;28;20414;-67
2023/04/03 09:48:13;;;;;;;;;;;;;;;16.88;38.08;94362.25;5054627;28;20043;-68
2023/04/03 09:50:48;;;;;;;;;;;;;;;16.92;38.15;94352.63;5072621;28;19953;-70
2023/04/03 09:53:26;;;;;;;;;;;;;;;16.83;38.06;94351.03;5071847;28;19949;-65
2023/04/03 09:55:53;;;;;;;;;;;;;;;16.90;38.32;94348.69;5072428;28;20408;-64
2023/04/03 09:58:30;;;;;;;;;;;;;;;16.93;38.26;94351.50;5074651;28;19962;-65
2023/04/03 10:01:25;;;;;;;;;;;;;;;16.84;38.26;94345.41;5060774;28;20663;-67
2023/04/03 10:04:12;;;;;;;;;;;;;;;16.89;38.26;94341.88;5072464;28;19990;-65
2023/04/03 10:06:52;;;;;;;;;;;;;;;16.89;38.72;94347.94;5071799;28;20034;-65
2023/04/03 10:09:23;;;;;;;;;;;;;;;16.93;38.70;94346.22;5072506;28;19951;-67
2023/04/03 10:12:05;;;;;;;;;;;;;;;16.84;38.66;94340.13;5071449;28;19981;-68
2023/04/03 10:14:40;;;;;;;;;;;;;;;16.89;39.06;94342.66;5059862;28;19955;-66
2023/04/03 10:17:06;;;;;;;;;;;;;;;16.91;38.86;94337.84;5070766;28;20619;-67
2023/04/03 10:19:41;;;;;;;;;;;;;;;16.95;39.09;94338.75;5071970;28;19954;-67
2023/04/03 10:22:19;;;;;;;;;;;;;;;16.95;39.41;94341.41;5071567;28;19944;-67
2023/04/03 10:25:01;;;;;;;;;;;;;;;16.88;39.00;94335.78;5072026;28;19950;-65
2023/04/03 10:27:43;;;;;;;;;;;;;;;16.69;39.17;94326.56;5071141;28;20030;-64
2023/04/03 10:30:10;;;;;;;;;;;;;;;16.77;39.23;94323.91;5071504;28;20479;-66
2023/04/03 10:33:00;;;;;;;;;;;;;;;16.83;39.16;94317.41;5053253;28;20393;-65
2023/04/03 10:35:39;;;;;;;;;;;;;;;16.77;38.70;94318.63;5034798;28;19940;-66
2023/04/03 10:38:32;;;;;;;;;;;;;;;16.80;38.98;94318.03;5071135;28;19949;-69
2023/04/03 10:41:07;;;;;;;;;;;;;;;16.83;39.32;94312.13;5067530;28;20438;-66
2023/04/03 10:43:41;;;;;;;;;;;;;;;16.95;38.94;94311.53;5059776;28;19945;-67
2023/04/03 10:46:19;;;;;;;;;;;;;;;17.01;38.72;94303.13;5070863;28;19924;-66
2023/04/03 10:48:45;;;;;;;;;;;;;;;17.11;38.91;94300.19;5071740;28;20381;-67
2023/04/03 10:51:34;;;;;;;;;;;;;;;17.15;38.84;94298.47;5071339;28;20299;-68
2023/04/03 10:54:04;;;;;;;;;;;;;;;16.92;39.09;94294.38;5058283;28;20352;-67
2023/04/03 10:56:39;;;;;;;;;;;;;;;16.77;38.30;94305.41;5070865;28;20420;-65
2023/04/03 10:59:12;;;;;;;;;;;;;;;16.66;38.42;94298.84;5071770;28;19960;-62
2023/04/03 11:01:41;;;;;;;;;;;;;;;16.74;38.15;94300.75;5071341;28;19932;-66
2023/04/03 11:04:10;;;;;;;;;;;;;;;16.63;38.49;94307.41;5071236;28;20023;-66
2023/04/03 11:06:43;;;;;;;;;;;;;;;16.61;37.23;94306.91;5070883;28;20022;-65
2023/04/03 11:09:19;;;;;;;;;;;;;;;16.68;38.14;94309.91;5070992;28;19968;-65
2023/04/03 11:11:47;;;;;;;;;;;;;;;16.37;39.58;94321.59;5070928;28;19983;-66
2023/04/03 11:14:17;;;;;;;;;;;;;;;16.41;40.27;94325.94;5071191;28;19928;-66
2023/04/03 11:16:46;;;;;;;;;;;;;;;15.77;41.70;94337.88;5071009;28;19928;-67
2023/04/03 11:19:23;;;;;;;;;;;;;;;15.72;40.95;94330.06;5057753;28;19931;-65
2023/04/03 11:22:06;;;;;;;;;;;;;;;16.07;41.25;94316.00;5069919;28;19929;-64
2023/04/03 11:24:36;;;;;;;;;;;;;;;16.08;41.94;94314.13;5070395;28;20383;-66
2023/04/03 11:27:05;;;;;;;;;;;;;;;15.69;42.78;94317.44;5070062;28;19929;-65
2023/04/03 11:29:34;;;;;;;;;;;;;;;15.46;43.58;94320.38;5070636;28;19997;-64
2023/04/03 11:32:09;;;;;;;;;;;;;;;16.10;43.21;94319.88;5068866;28;19936;-65
2023/04/03 11:34:40;;;;;;;;;;;;;;;15.71;44.57;94317.19;5070579;28;19931;-64
2023/04/03 11:37:17;;;;;;;;;;;;;;;15.71;44.08;94317.19;5070396;28;20007;-66
2023/04/03 11:39:54;;;;;;;;;;;;;;;15.75;44.67;94318.09;5070103;28;19932;-65
2023/04/03 11:42:34;;;;;;;;;;;;;;;15.57;45.30;94313.78;5070235;28;19936;-66
2023/04/03 11:45:16;;;;;;;;;;;;;;;15.91;45.66;94311.41;5071029;28;19924;-66
2023/04/03 11:48:03;;;;;;;;;;;;;;;15.78;45.65;94312.25;5069943;28;19929;-68
2023/04/03 11:50:47;;;;;;;;;;;;;;;16.10;45.49;94311.94;5070310;28;19933;-62
2023/04/03 11:53:14;;;;;;;;;;;;;;;16.09;45.70;94321.75;5070074;28;19972;-68
2023/04/03 11:55:42;;;;;;;;;;;;;;;16.04;46.55;94323.72;5070188;28;19928;-67
2023/04/03 11:58:26;;;;;;;;;;;;;;;15.78;46.63;94325.44;5069782;28;19924;-65
2023/04/03 12:00:55;;;;;;;;;;;;;;;16.03;46.63;94314.25;5070230;28;19932;-69
2023/04/03 12:03:22;;;;;;;;;;;;;;;15.94;47.54;94321.34;5069993;28;19932;-63
2023/04/03 12:06:04;;;;;;;;;;;;;;;16.05;47.46;94320.03;5070411;28;19951;-63
2023/04/03 12:08:37;;;;;;;;;;;;;;;15.87;48.70;94328.94;5070233;28;20627;-68
2023/04/03 12:11:12;;;;;;;;;;;;;;;15.46;49.34;94336.22;5069497;28;19933;-67
2023/04/03 12:13:49;;;;;;;;;;;;;;;15.31;49.18;94339.19;5069966;28;19925;-65
2023/04/03 12:16:34;;;;;;;;;;;;;;;15.03;49.76;94344.53;5069803;28;20237;-65
2023/04/03 12:19:13;;;;;;;;;;;;;;;15.00;49.86;94345.09;5069992;28;20090;-66
2023/04/03 12:21:46;;;;;;;;;;;;;;;15.12;49.29;94336.69;5069386;28;19975;-63
2023/04/03 12:24:16;;;;;;;;;;;;;;;15.42;50.13;94319.44;5058244;28;19942;-67
2023/04/03 12:26:51;;;;;;;;;;;;;;;15.30;50.25;94332.34;5069426;28;19986;-65
2023/04/03 12:29:24;;;;;;;;;;;;;;;15.52;50.77;94319.97;5070015;28;20423;-62
2023/04/03 12:32:03;;;;;;;;;;;;;;;15.24;50.36;94319.25;5069037;28;19947;-70
2023/04/03 12:34:29;;;;;;;;;;;;;;;15.64;50.38;94311.50;5069916;28;19960;-64
2023/04/03 12:36:59;;;;;;;;;;;;;;;15.71;50.05;94314.53;5069290;28;20052;-70
2023/04/03 12:39:47;;;;;;;;;;;;;;;15.77;49.31;94305.38;5069910;28;19948;-65
2023/04/03 12:42:32;;;;;;;;;;;;;;;15.51;51.12;94307.09;5068894;28;19991;-67
2023/04/03 12:45:09;;;;;;;;;;;;;;;15.35;51.67;94297.91;5069825;28;19947;-63
2023/04/03 12:47:37;;;;;;;;;;;;;;;15.45;52.06;94292.44;5069012;28;19985;-64
2023/04/03 12:50:16;;;;;;;;;;;;;;;15.32;52.29;94287.94;5069830;28;19949;-67
2023/04/03 12:52:45;;;;;;;;;;;;;;;15.37;51.96;94285.97;5068058;28;19988;-68
2023/04/03 12:55:16;;;;;;;;;;;;;;;15.23;51.99;94282.63;5069571;28;19949;-64
2023/04/03 12:57:42;;;;;;;;;;;;;;;15.27;51.95;94277.50;5069104;28;20002;-69
2023/04/03 13:00:22;;;;;;;;;;;;;;;15.21;52.22;94282.91;5069458;28;20421;-66
2023/04/03 13:02:49;;;;;;;;;;;;;;;15.38;52.12;94276.19;5068901;28;20011;-65
2023/04/03 13:05:17;;;;;;;;;;;;;;;15.39;51.99;94283.03;5069847;28;20061;-64